Ama, Louisiana
Current Conditions -  °F | °C
As of 3:53 PM on Tuesday 21 Oct 2014 (Local Time) from KMSY Reporting Station
Clear Clear  
Wind Chill: 79°   Ceiling: Unl
Heat Index: 79°   Visibility: 10mi
Dew Point: 52°   Wind: 5mph
Humidity: 39%   Direction: 70°ENE
Pressure: 29.98"   Gusts: NA
Location:  29.95°N, 90.3°W
Report Text: KMSY 212053Z 07004KT 10SM CLR 26/11 A2998 RMK AO2 SLP155 T02610111 56019
Loading
Personal Weather Stations






























Interactive Weather Map
Tropical Storm Tracking
New forecast layout! Learn more

10-Day Weather Forecast

Advertisements
Track Severe Weather on mobile